Vers la page d'accueil de NAV CANADA Ouverture d'une nouvelle session Chercher sur le site AWWS Clause de non-reponsabilité To the equivalent English page Trucs et astuces FAQ Quoi de neuf sur le site Vers la section Prévisions et observations / NOTAM Vers le site web pour <<Déposer un plan de vol>> Publications et liens importants Mise à jour du profil d'usager Numéros de téléphone des FIC Mes données météo personnelles Données météo de route Données météo régionales Données météo locales Vers la section Prévisions et observations / NOTAM
Requête générée le 2022/06/30 à 11:10:22 UTC. L'information météorologique disponible à ce moment est affichée.

METAR/TAF

Si vous notez des différences entre le METAR/TAF codé et le METAR/TAF en langage clair, veuillez utiliser la version codée. Les bulletins LWIS ne sont pas décodés en langage clair.

MONTREAL INTL (MIRABEL)/QC    

METAR CYMX 301100Z 07002KT 30SM FEW006 FEW030 SCT240 14/13 A3022 RMK CF1CU2CI2 TR SLP236=
METAR
LIEU
CYMX - MONTREAL INTL (MIRABEL)/QC
DATE - HEURE
30 JUIN 2022 - 1100 UTC
VENT
70 VRAIS @ 2  NOEUDS
VISIBILITE
30 MILLES TERR.
PORTEE VISUELLE DE PISTE
METEO
NEBULOSITE
QUELQUES NUAGES (1/8 - 2/8) 600  PI
QUELQUES NUAGES (1/8 - 2/8) 3000  PI
NUAGES EPARS (3/8 - 4/8) 24000  PI
TEMP / PT DE ROSEE
14 C / 13 C
ALTIMETRE
30.22 PO HG
TEMPS RECENT
CISAILLEMENT

METAR CYMX 301000Z 25003KT 230V290 30SM FEW002 SCT026 BKN044 BKN230 13/13 A3021 MK CF1SC3SC2CI1 CF TR SLP234=
METAR
LIEU
CYMX - MONTREAL INTL (MIRABEL)/QC
DATE - HEURE
30 JUIN 2022 - 1000 UTC
VENT
250 VRAIS @ 3  NOEUDS
VARIATION
230 <-> 290  DEG
VISIBILITE
30 MILLES TERR.
PORTEE VISUELLE DE PISTE
METEO
NEBULOSITE
QUELQUES NUAGES (1/8 - 2/8) 200  PI
NUAGES EPARS (3/8 - 4/8) 2600  PI
NUAGES FRAGMENTES (5/8 - 7/8) 4400  PI
NUAGES FRAGMENTES (5/8 - 7/8) 23000  PI
TEMP / PT DE ROSEE
13 C / 13 C
ALTIMETRE
30.21 PO HG
TEMPS RECENT
CISAILLEMENT

METAR CYMX 300900Z 27005KT 30SM BCFG FEW042 SCT075 12/12 A3020 RMK SC2AC2 SLP22
METAR
LIEU
CYMX - MONTREAL INTL (MIRABEL)/QC
DATE - HEURE
30 JUIN 2022 - 0900 UTC
VENT
270 VRAIS @ 5  NOEUDS
VISIBILITE
30 MILLES TERR.
PORTEE VISUELLE DE PISTE
METEO
BANCS DE BROUILLARD
NEBULOSITE
QUELQUES NUAGES (1/8 - 2/8) 4200  PI
NUAGES EPARS (3/8 - 4/8) 7500  PI
TEMP / PT DE ROSEE
12 C / 12 C
ALTIMETRE
30.20 PO HG
TEMPS RECENT
CISAILLEMENT

TAF CYMX 300540Z 3006/0106 VRB03KT P6SM SKC TEMPO 3006/3011 2SM BR SCT003 PROB30 3006/3011 3/4SM BR BKN003 FM301300 VRB03KT P6SM FEW030 FM301500 19005KT P6SM FEW050 FM302100 22006KT P6SM BKN080 FM010000 19005KT P6SM SCT100 FM010300 VRB03KT P6SM BKN110 RMK NXT FCST BY 301200Z=
TAF
LIEU

CYMX - MONTREAL INTL (MIRABEL)/QC
VALIDITE [UTC]
30 JUN - 0540 à
01 JUL - 0600
 
PERIODES
[UTC]
VENT
[DEGRES VRAIS]
VISIBILITE
[MILLES TERR.]
METEO
NEBULOSITE
[PIEDS AGL]
 
30 JUN - 0600 à
30 JUN - 1300
VARIABLE @ 3 NOEUDS
6+
---
CIEL DEGAGE
CHANGEMENTS TEMPORAIRES
30 JUN - 0600 à
30 JUN - 1100
 
2
BRUME
300 EPARS
30% PROBABILITE
30 JUN - 0600 à
30 JUN - 1100
 
3/4
BRUME
300 FRAGMENTES
 
30 JUN - 1300 à
30 JUN - 1500
VARIABLE @ 3 NOEUDS
6+
---
3000 QUELQUES
 
30 JUN - 1500 à
30 JUN - 2100
190 @ 5 NOEUDS
6+
---
5000 QUELQUES
 
30 JUN - 2100 à
01 JUL - 0000
220 @ 6 NOEUDS
6+
---
8000 FRAGMENTES
 
01 JUL - 0000 à
01 JUL - 0300
190 @ 5 NOEUDS
6+
---
10000 EPARS
 
01 JUL - 0300 à
01 JUL - 0600
VARIABLE @ 3 NOEUDS
6+
---
11000 FRAGMENTES
REMARQUES


Votre heure Heure UTC
Données météorologiques fournies par Environnement Canada et NAV CANADA